KDLH/DLH METAR and TAF weather

Enter ICAO airport designator
Station Type Date Time Source
KDLH METAR 2020/09/20 09:55 UTC NOAA

KDLH 200955Z 16009KT 10SM CLR 12/08 A3018 RMK AO2 SLP221 T01170078


Station Type Date Time Source
KDLH Decoded METAR 2020/09/20 09:55 UTC NOAA

Duluth, Duluth International Airport, MN, United States (KDLH) 46-50-34N 092-13-34W 435M
Sep 20, 2020 - 05:55 AM EDT / 2020.09.20 0955 UTC
Wind: from the SSE (160 degrees) at 10 MPH (9 KT):0
Visibility: 10 mile(s):0
Sky conditions: clear
Temperature: 53.1 F (11.7 C)
Dew Point: 46.0 F (7.8 C)
Relative Humidity: 76%
Pressure (altimeter): 30.18 in. Hg (1022 hPa)
ob: KDLH 200955Z 16009KT 10SM CLR 12/08 A3018 RMK AO2 SLP221 T01170078
cycle: 10

Station Type Date Time Source
KDLH TAF 2020/09/20 06:42 UTC NOAA

TAF KDLH 200540Z 2006/2106 19008KT P6SM FEW060
FM201100 18006KT P6SM SCT250 WS015/20030KT
FM201400 17011G20KT P6SM SCT250
FM201900 17015G25KT P6SM SCT250
FM210200 18013KT P6SM BKN150 WS020/20045KT

Example: see airport list